Airfield :
LOGIN :

Register | Disclaimer

   EN    FR    IT 

 










Legend :    VFR   Marginal VFR   IFR   Intensive IFR   Very Intensive IFR
Visi :
Ceiling :
>= 8 km
>= 3000ft
5 to 8 km
1000 to 3000 ft
1500m to 5 km
500 to 1000 ft
800 to 1500m
200 to 500 ft
< 800m
< 200 ft
Symbols :   Thunderstorms  Fog  Heavy snow  Heavy precipitations  Wind > 20 kt
SIGMETs :     Misc.  Thunderstorms  Icing  Turbulence  Mountain Waves  Volcanic Ashes







- Airport Elevation : 1455 ft


ETIH - Hohenfels Army Air Field

CURRENT METAR :
  • 151504Z AUTO 00000KT 9999 BKN040 03/01 A2949 RMK AO2 RAE04 SLP004 $

EXPIRED METARs :
  • 151456Z AUTO 00000KT 9999 -RA FEW014 FEW022 FEW028 BKN038 BKN047 03/02 A2949 RMK AO2 RAB52 SLP004 P0000 60000 T00300017 53000 $
  • 151356Z AUTO 00000KT 9999 OVC039 04/01 A2949 RMK AO2 RAB07E21RAB43E53 SLP002 P0000 T00350014 $
  • 151343Z AUTO 17003KT 9999 -RA FEW029 OVC039 04/01 A2949 RMK AO2 RAB07E21RAB43 SLP002 $
  • 151332Z AUTO 16003KT 9999 SCT027 OVC037 04/01 A2949 RMK AO2 RAB07E21 SLP002 $
  • 151307Z AUTO 18004KT 9999 -RA OVC028 04/01 A2949 RMK AO2 RAB07 SLP002 $
  • 151256Z AUTO 20004KT 9999 OVC028 04/01 A2949 RMK AO2 SLP002 T00390011 $
  • 151243Z AUTO 19003KT 9999 OVC030 04/01 A2949 RMK AO2 SLP002 $

Expired Forecast.
No reported NOTAMs for that airfield.



MET'MAP, your aeronautical weather chart ! - Copyright ORBIFLY December 2007 - Disclaimer

ORBIFLY MET'MAP TEAM :

Programming & Development : Alexandra Zaïnal
Concept & Development : Baudouin d'Aumeries
Co-Development & Prog : Marc-Olivier Méhu
Technical & hardware support : Manuel Goepfert

Contact : metmap@orbifly.com




SOURCES & CREDITS :

   NOAA